Time;durP1;ratioP1;P1;durP2;ratioP2;P2;SDS_P1;SDS_P2;PMS_P1;PMS_P2;Temp;Humidity;BMP_temperature;BMP_pressure;BME280_temperature;BME280_humidity;BME280_pressure;Samples;Min_cycle;Max_cycle;Signal;HPM_P1;HPM_P2
2023/03/08 00:01:24;;;;;;;6.08;2.12;;;;;;;8.15;60.82;101082.09;1845678;77;21487;-48
2023/03/08 00:03:55;;;;;;;2.20;1.07;;;;;;;8.13;60.71;101065.08;1846888;78;21040;-48
2023/03/08 00:06:25;;;;;;;4.70;1.37;;;;;;;8.18;60.41;101085.52;1847270;78;21115;-48
2023/03/08 00:08:59;;;;;;;3.72;1.05;;;;;;;8.22;60.15;101094.17;1847294;78;21561;-48
2023/03/08 00:11:28;;;;;;;2.08;1.02;;;;;;;8.26;59.94;101086.63;1847244;78;21103;-46
2023/03/08 00:13:58;;;;;;;5.58;2.52;;;;;;;8.24;60.01;101084.50;1847218;78;21452;-47
2023/03/08 00:16:27;;;;;;;4.75;1.67;;;;;;;8.21;60.02;101095.94;1847198;78;21553;-47
2023/03/08 00:18:55;;;;;;;3.72;1.57;;;;;;;8.19;60.00;101095.55;1846781;78;21225;-46
2023/03/08 00:21:24;;;;;;;1.65;1.05;;;;;;;8.15;59.98;101091.27;1847433;78;21201;-48
2023/03/08 00:23:54;;;;;;;4.53;1.37;;;;;;;8.16;60.05;101093.87;1847313;78;21048;-47
2023/03/08 00:26:23;;;;;;;8.65;2.02;;;;;;;8.15;60.01;101090.81;1816493;78;21505;-45
2023/03/08 00:28:52;;;;;;;2.10;1.12;;;;;;;8.14;59.92;101085.63;1810479;79;21502;-45
2023/03/08 00:31:21;;;;;;;3.45;1.32;;;;;;;8.15;59.92;101082.09;1812771;78;21133;-46
2023/03/08 00:33:54;;;;;;;2.75;1.30;;;;;;;8.15;60.01;101086.03;1826996;77;21585;-46
2023/03/08 00:36:23;;;;;;;3.00;1.25;;;;;;;8.13;59.93;101076.88;1816817;79;21079;-47
2023/03/08 00:38:52;;;;;;;2.67;1.30;;;;;;;8.14;59.95;101086.48;1816795;79;21055;-47
2023/03/08 00:41:21;;;;;;;3.45;1.60;;;;;;;8.17;59.85;101069.38;1835798;76;21081;-48
2023/03/08 00:43:50;;;;;;;2.50;1.20;;;;;;;8.23;59.67;101082.80;1852266;74;21028;-48
2023/03/08 00:46:18;;;;;;;2.22;1.20;;;;;;;8.23;59.47;101086.27;1878443;75;21092;-48
2023/03/08 00:48:47;;;;;;;1.52;1.32;;;;;;;8.27;59.30;101080.05;1878726;76;21049;-47
2023/03/08 00:51:19;;;;;;;5.28;1.62;;;;;;;8.32;59.12;101082.57;1846693;76;21575;-50
2023/03/08 00:53:48;;;;;;;2.65;1.10;;;;;;;8.34;58.89;101079.88;1847168;78;21157;-46
2023/03/08 00:56:17;;;;;;;5.15;1.27;;;;;;;8.36;58.80;101080.28;1844408;78;21541;-50
2023/03/08 00:58:46;;;;;;;4.67;1.70;;;;;;;8.37;58.69;101085.92;1847306;78;21460;-48
2023/03/08 01:01:18;;;;;;;2.60;1.22;;;;;;;8.39;58.48;101078.91;1847186;78;21096;-48
2023/03/08 01:03:48;;;;;;;4.45;1.17;;;;;;;8.43;58.41;101075.33;1812015;76;21121;-50
2023/03/08 01:06:17;;;;;;;2.25;1.00;;;;;;;8.46;58.25;101079.17;1810345;79;21081;-49
2023/03/08 01:08:45;;;;;;;2.55;1.10;;;;;;;8.47;58.09;101079.59;1810695;79;21105;-49
2023/03/08 01:11:22;;;;;;;2.75;1.22;;;;;;;8.48;57.84;101070.84;1810474;79;21093;-49
2023/03/08 01:13:52;;;;;;;2.17;1.15;;;;;;;8.51;57.79;101068.57;1812765;78;21117;-49
2023/03/08 01:16:26;;;;;;;2.72;1.20;;;;;;;8.53;57.55;101069.85;1810490;79;21509;-49
2023/03/08 01:18:56;;;;;;;2.05;1.00;;;;;;;8.53;57.42;101085.14;1810385;79;21125;-48
2023/03/08 01:21:26;;;;;;;2.90;1.25;;;;;;;8.53;57.39;101064.14;1810283;79;21540;-49
2023/03/08 01:23:55;;;;;;;2.98;1.60;;;;;;;8.54;57.34;101068.94;1812778;78;21082;-50
2023/03/08 01:26:26;;;;;;;3.20;1.22;;;;;;;8.54;57.23;101070.24;1810460;79;21513;-49
2023/03/08 01:28:57;;;;;;;3.10;1.30;;;;;;;8.54;56.99;101068.94;1811240;78;21070;-50
2023/03/08 01:31:29;;;;;;;2.27;1.20;;;;;;;8.55;56.94;101068.05;1810394;79;21138;-48
2023/03/08 01:33:59;;;;;;;3.30;1.12;;;;;;;8.53;56.72;101067.23;1855590;76;21126;-50
2023/03/08 01:36:29;;;;;;;2.67;1.07;;;;;;;8.52;56.81;101068.11;1878175;76;21605;-48
2023/03/08 01:39:00;;;;;;;3.15;1.35;;;;;;;8.50;56.67;101071.66;1878264;76;21044;-50
2023/03/08 01:41:31;;;;;;;3.33;1.80;;;;;;;8.47;56.75;101067.78;1801014;76;21129;-49
2023/03/08 01:44:01;;;;;;;5.05;1.77;;;;;;;8.42;56.82;101072.28;1790639;80;21140;-52
2023/03/08 01:46:32;;;;;;;4.20;1.70;;;;;;;8.32;56.98;101069.45;1790654;79;21704;-48
2023/03/08 01:49:29;;;;;;;3.87;1.57;;;;;;;8.23;57.14;101077.55;1791389;78;21066;-48
2023/03/08 01:52:08;;;;;;;3.83;1.70;;;;;;;8.11;57.34;101076.94;1836785;77;21028;-48
2023/03/08 01:54:45;;;;;;;4.50;2.37;;;;;;;8.08;57.39;101075.69;1843601;76;21099;-47
2023/03/08 01:57:25;;;;;;;3.35;1.62;;;;;;;8.06;57.42;101084.05;1842945;77;21036;-47
2023/03/08 01:59:57;;;;;;;8.33;2.40;;;;;;;8.00;57.50;101090.72;1843663;78;21153;-47
2023/03/08 02:02:31;;;;;;;5.50;2.10;;;;;;;7.92;57.65;101099.23;1840044;78;21084;-49
2023/03/08 02:05:00;;;;;;;6.70;1.60;;;;;;;7.78;57.83;101103.91;1843757;78;21017;-47
2023/03/08 02:07:30;;;;;;;2.72;1.22;;;;;;;7.70;58.19;101101.00;1843695;77;21150;-47
2023/03/08 02:09:59;;;;;;;5.70;1.37;;;;;;;7.69;58.36;101099.28;1843793;77;21071;-47
2023/03/08 02:12:28;;;;;;;2.98;1.60;;;;;;;7.68;58.41;101095.38;1839912;78;21046;-47
2023/03/08 02:14:58;;;;;;;4.20;1.95;;;;;;;7.67;58.44;101085.35;1843795;78;21506;-46
2023/03/08 02:17:27;;;;;;;4.78;1.65;;;;;;;7.70;58.42;101090.51;1843673;78;21064;-49
2023/03/08 02:20:01;;;;;;;4.70;1.95;;;;;;;7.71;58.34;101080.45;1843854;77;21135;-49
2023/03/08 02:22:30;;;;;;;4.60;1.70;;;;;;;7.71;58.26;101068.66;1840651;76;21056;-48
2023/03/08 02:24:59;;;;;;;2.22;1.20;;;;;;;7.76;57.87;101087.34;1843890;78;21025;-49
2023/03/08 02:27:28;;;;;;;3.30;1.50;;;;;;;7.85;57.78;101080.59;1843686;78;21159;-48
2023/03/08 02:29:57;;;;;;;4.00;1.77;;;;;;;7.93;57.58;101089.17;1843658;77;21519;-49
2023/03/08 02:32:25;;;;;;;3.80;1.52;;;;;;;8.02;57.44;101089.38;1839969;78;21197;-49
2023/03/08 02:34:54;;;;;;;2.35;1.17;;;;;;;8.05;57.37;101086.24;1842865;77;21084;-47
2023/03/08 02:37:22;;;;;;;3.95;1.77;;;;;;;8.02;57.43;101086.33;1845445;78;21130;-48
2023/03/08 02:39:51;;;;;;;3.35;1.80;;;;;;;7.99;57.50;101082.92;1838489;78;21058;-51
2023/03/08 02:42:19;;;;;;;3.80;1.85;;;;;;;7.95;57.57;101083.44;1810461;79;21105;-48
2023/03/08 02:44:48;;;;;;;6.53;2.55;;;;;;;7.90;57.71;101080.05;1810276;79;21145;-47
2023/03/08 02:47:17;;;;;;;4.53;1.50;;;;;;;7.88;57.81;101080.53;1810511;79;21600;-47
2023/03/08 02:49:48;;;;;;;2.95;1.55;;;;;;;7.88;57.91;101081.84;1811080;78;21104;-47
2023/03/08 02:52:17;;;;;;;5.05;2.70;;;;;;;7.85;57.97;101087.14;1811219;78;21565;-47
2023/03/08 02:54:45;;;;;;;3.25;1.80;;;;;;;7.86;57.99;101091.50;1810498;79;21034;-48
2023/03/08 02:57:14;;;;;;;2.50;1.42;;;;;;;7.85;58.02;101092.39;1810289;79;21145;-49
2023/03/08 02:59:44;;;;;;;3.92;1.95;;;;;;;7.86;58.07;101088.43;1810438;79;21086;-47
2023/03/08 03:02:13;;;;;;;3.85;2.00;;;;;;;7.88;58.06;101097.58;1812982;78;21040;-47
2023/03/08 03:04:41;;;;;;;6.33;2.10;;;;;;;7.90;58.05;101093.16;1810421;79;21070;-48
2023/03/08 03:07:10;;;;;;;5.15;1.65;;;;;;;7.91;58.02;101094.86;1810492;79;21129;-48
2023/03/08 03:09:39;;;;;;;4.67;1.70;;;;;;;7.87;58.03;101107.17;1810387;79;21231;-50
2023/03/08 03:12:08;;;;;;;6.62;1.98;;;;;;;7.86;58.06;101097.61;1812868;78;21573;-51
2023/03/08 03:14:38;;;;;;;4.55;1.30;;;;;;;7.87;58.05;101114.19;1810389;79;21086;-48
2023/03/08 03:17:07;;;;;;;5.00;2.02;;;;;;;7.85;58.06;101115.98;1810497;79;21035;-48
2023/03/08 03:19:37;;;;;;;6.85;1.87;;;;;;;7.82;58.07;101116.04;1810340;79;21050;-49
2023/03/08 03:22:05;;;;;;;4.15;2.05;;;;;;;7.74;58.12;101121.45;1812894;78;21037;-48
2023/03/08 03:24:34;;;;;;;3.85;1.90;;;;;;;7.63;58.15;101127.38;1810373;79;21572;-49
2023/03/08 03:27:04;;;;;;;5.40;2.33;;;;;;;7.51;58.28;101137.67;1810339;79;21549;-48
2023/03/08 03:29:34;;;;;;;8.13;2.77;;;;;;;7.38;58.40;101144.02;1810441;79;21090;-47
2023/03/08 03:32:04;;;;;;;5.92;2.25;;;;;;;7.24;58.57;101149.08;1811626;77;21126;-47
2023/03/08 03:34:34;;;;;;;8.45;2.60;;;;;;;7.12;58.71;101151.48;1841074;78;21076;-47
2023/03/08 03:37:03;;;;;;;4.87;2.12;;;;;;;7.00;58.87;101141.68;1853024;77;21080;-49
2023/03/08 03:39:37;;;;;;;4.70;2.15;;;;;;;6.92;59.02;101141.37;1848613;77;21562;-48
2023/03/08 03:42:08;;;;;;;8.38;1.98;;;;;;;6.86;59.15;101135.36;1819299;79;21512;-47
2023/03/08 03:44:38;;;;;;;8.15;2.65;;;;;;;6.83;59.34;101136.30;1819213;79;21119;-48
2023/03/08 03:47:08;;;;;;;9.25;2.33;;;;;;;6.83;59.39;101131.05;1819177;79;21541;-51
2023/03/08 03:49:36;;;;;;;6.28;2.42;;;;;;;6.81;59.50;101138.08;1820885;77;21577;-52
2023/03/08 03:52:06;;;;;;;4.62;1.75;;;;;;;6.83;59.64;101135.44;1822845;77;21152;-49
2023/03/08 03:54:39;;;;;;;7.45;2.35;;;;;;;6.91;59.63;101144.01;1817876;79;21512;-50
2023/03/08 03:57:08;;;;;;;2.80;1.57;;;;;;;7.03;59.62;101146.88;1819141;79;21101;-50
2023/03/08 03:59:38;;;;;;;3.95;1.85;;;;;;;7.16;59.51;101144.44;1819168;79;21187;-55
2023/03/08 04:02:08;;;;;;;6.50;2.62;;;;;;;7.27;59.35;101139.86;1821718;77;21083;-47
2023/03/08 04:04:44;;;;;;;7.65;1.75;;;;;;;7.37;59.21;101148.41;1818663;79;21089;-48
2023/03/08 04:07:13;;;;;;;5.53;1.70;;;;;;;7.44;59.10;101146.54;1819265;79;21644;-47
2023/03/08 04:09:43;;;;;;;4.65;1.70;;;;;;;7.54;59.05;101141.52;1818565;79;21097;-51
2023/03/08 04:12:14;;;;;;;8.45;1.98;;;;;;;7.65;58.85;101142.16;1821059;77;21042;-48
2023/03/08 04:14:44;;;;;;;6.72;1.90;;;;;;;7.78;58.64;101144.08;1819330;79;21061;-49
2023/03/08 04:17:14;;;;;;;4.33;1.95;;;;;;;7.91;58.57;101136.81;1819378;79;21122;-48
2023/03/08 04:19:44;;;;;;;4.95;1.60;;;;;;;8.06;58.23;101139.13;1818553;79;21089;-51
2023/03/08 04:22:13;;;;;;;3.20;1.60;;;;;;;8.17;58.13;101135.37;1832995;76;21142;-49
2023/03/08 04:24:43;;;;;;;3.55;1.95;;;;;;;8.24;57.83;101138.28;1846443;76;21135;-48
2023/03/08 04:27:13;;;;;;;3.83;1.80;;;;;;;8.33;57.49;101132.82;1855347;77;21119;-48
2023/03/08 04:29:42;;;;;;;3.40;1.55;;;;;;;8.32;57.30;101127.17;1856135;76;21197;-47
2023/03/08 04:32:11;;;;;;;2.67;1.20;;;;;;;8.31;57.01;101130.69;1853451;77;21262;-47
2023/03/08 04:34:41;;;;;;;3.87;2.00;;;;;;;8.35;56.90;101131.02;1842715;76;21074;-47
2023/03/08 04:37:12;;;;;;;3.47;1.67;;;;;;;8.43;56.44;101126.50;1844749;76;21530;-51
2023/03/08 04:39:41;;;;;;;4.90;1.95;;;;;;;8.54;55.66;101131.92;1835349;77;21685;-51
2023/03/08 04:42:11;;;;;;;7.37;1.60;;;;;;;8.66;55.62;101119.82;1823971;78;21151;-52
2023/03/08 04:44:39;;;;;;;6.08;1.90;;;;;;;8.87;54.42;101127.59;1806238;79;21138;-52
2023/03/08 04:47:08;;;;;;;3.02;1.70;;;;;;;9.04;54.21;101128.03;1806228;79;21544;-52
2023/03/08 04:49:39;;;;;;;3.52;1.30;;;;;;;9.06;53.91;101129.30;1805880;79;21108;-53
2023/03/08 04:52:08;;;;;;;6.80;1.80;;;;;;;9.05;53.74;101131.51;1808139;78;21643;-51
2023/03/08 04:54:38;;;;;;;5.78;2.05;;;;;;;9.03;53.65;101130.69;1806105;78;21164;-50
2023/03/08 04:57:08;;;;;;;7.58;2.30;;;;;;;8.98;53.76;101126.00;1805515;79;21084;-48
2023/03/08 04:59:37;;;;;;;7.22;2.37;;;;;;;8.91;54.17;101131.00;1806197;79;21577;-49
2023/03/08 05:02:06;;;;;;;4.92;2.87;;;;;;;8.83;54.46;101133.37;1808226;78;21588;-47
2023/03/08 05:04:36;;;;;;;6.40;3.12;;;;;;;8.75;54.68;101136.66;1806555;78;22002;-49
2023/03/08 05:07:04;;;;;;;6.25;3.02;;;;;;;8.77;54.77;101129.59;1833844;78;21032;-47
2023/03/08 05:09:35;;;;;;;4.33;1.77;;;;;;;9.07;54.74;101137.16;1836346;77;21083;-46
2023/03/08 05:12:04;;;;;;;5.03;1.85;;;;;;;9.55;54.40;101133.19;1835392;77;21024;-52
2023/03/08 05:14:34;;;;;;;6.30;2.52;;;;;;;10.04;54.03;101140.11;1834144;77;21071;-52
2023/03/08 05:17:03;;;;;;;6.47;2.00;;;;;;;10.47;53.34;101133.52;1836254;77;21205;-50
2023/03/08 05:19:33;;;;;;;4.35;1.80;;;;;;;10.91;52.82;101139.55;1836265;77;21100;-48
2023/03/08 05:22:04;;;;;;;8.60;2.27;;;;;;;11.45;52.34;101143.78;1835643;78;21254;-48
2023/03/08 05:24:33;;;;;;;7.37;2.47;;;;;;;11.98;51.57;101144.91;1836353;78;21122;-47
2023/03/08 05:27:03;;;;;;;6.28;2.05;;;;;;;12.55;51.69;101135.22;1835973;78;21090;-49
2023/03/08 05:29:33;;;;;;;6.42;2.52;;;;;;;13.09;51.44;101137.77;1836286;77;21115;-48
2023/03/08 05:32:02;;;;;;;10.63;2.77;;;;;;;13.56;49.96;101142.41;1836474;78;21172;-53
2023/03/08 05:34:32;;;;;;;4.87;2.22;;;;;;;14.05;49.74;101138.80;1832932;77;21519;-52
2023/03/08 05:37:01;;;;;;;5.80;2.33;;;;;;;14.39;48.41;101134.56;1834748;78;21550;-48
2023/03/08 05:39:31;;;;;;;6.45;1.82;;;;;;;14.84;47.81;101138.52;1834689;78;21099;-50
2023/03/08 05:42:01;;;;;;;2.00;1.25;;;;;;;15.45;47.58;101130.50;1833646;78;21549;-47
2023/03/08 05:44:32;;;;;;;4.30;1.40;;;;;;;15.87;45.89;101136.27;1835712;78;21082;-46
2023/03/08 05:47:00;;;;;;;5.72;1.80;;;;;;;16.12;44.33;101135.30;1836511;77;21091;-51
2023/03/08 05:49:29;;;;;;;4.87;1.77;;;;;;;16.27;43.61;101133.58;1836287;78;21169;-52
2023/03/08 05:51:58;;;;;;;4.83;1.80;;;;;;;16.45;43.50;101132.13;1836306;78;21518;-52
2023/03/08 05:54:28;;;;;;;4.08;1.98;;;;;;;16.70;42.54;101135.56;1834177;78;21510;-51
2023/03/08 05:56:58;;;;;;;5.10;2.25;;;;;;;16.96;41.52;101130.91;1836081;78;21535;-51
2023/03/08 05:59:27;;;;;;;3.95;1.70;;;;;;;17.32;41.01;101129.66;1836325;78;21076;-53
2023/03/08 06:01:58;;;;;;;2.95;1.57;;;;;;;17.65;40.19;101121.87;1836075;78;21160;-49
2023/03/08 06:04:34;;;;;;;3.60;1.80;;;;;;;17.98;39.35;101131.34;1833207;77;21036;-49
2023/03/08 06:07:03;;;;;;;3.30;1.25;;;;;;;18.33;38.08;101113.09;1836104;78;21134;-51
2023/03/08 06:09:33;;;;;;;4.10;1.55;;;;;;;18.40;35.76;101121.52;1835486;78;21086;-48
2023/03/08 06:12:02;;;;;;;2.40;1.35;;;;;;;18.54;35.45;101117.11;1836401;77;21091;-48
2023/03/08 06:14:31;;;;;;;2.87;1.27;;;;;;;18.64;34.71;101115.03;1835171;78;21145;-52
2023/03/08 06:17:00;;;;;;;3.00;1.30;;;;;;;18.65;32.88;101109.24;1836406;77;21162;-55
2023/03/08 06:19:30;;;;;;;3.17;1.27;;;;;;;18.51;31.99;101103.00;1836128;77;21149;-53
2023/03/08 06:21:59;;;;;;;2.70;1.12;;;;;;;18.51;32.31;101104.33;1836465;78;21056;-54
2023/03/08 06:24:28;;;;;;;3.70;1.90;;;;;;;18.78;33.11;101104.78;1833867;77;21145;-46
2023/03/08 06:26:58;;;;;;;8.30;1.02;;;;;;;19.04;32.33;101120.86;1834808;78;21090;-47
2023/03/08 06:29:27;;;;;;;2.30;1.22;;;;;;;19.21;31.89;101111.69;1834803;78;21063;-47
2023/03/08 06:31:56;;;;;;;1.90;1.10;;;;;;;19.42;31.18;101117.33;1834764;78;21056;-54
2023/03/08 06:34:26;;;;;;;3.90;1.77;;;;;;;19.60;31.40;101120.52;1834798;78;21535;-54
2023/03/08 06:36:58;;;;;;;5.37;1.42;;;;;;;19.60;29.64;101121.86;1834788;78;21064;-48
2023/03/08 06:39:29;;;;;;;1.80;1.10;;;;;;;19.59;29.80;101114.82;1844262;77;21117;-48
2023/03/08 06:41:57;;;;;;;2.98;1.65;;;;;;;19.64;29.85;101117.53;1845262;77;21084;-47
2023/03/08 06:44:26;;;;;;;1.85;1.15;;;;;;;19.73;29.29;101133.89;1845244;77;21568;-48
2023/03/08 06:46:55;;;;;;;2.08;1.17;;;;;;;19.89;29.52;101129.65;1823406;78;21027;-47
2023/03/08 06:49:25;;;;;;;2.22;1.20;;;;;;;20.16;28.75;101124.09;1810319;78;21097;-50
2023/03/08 06:51:54;;;;;;;6.33;1.30;;;;;;;20.34;28.17;101117.88;1810529;79;21482;-48
2023/03/08 06:54:23;;;;;;;1.70;0.85;;;;;;;20.54;27.59;101135.95;1810564;79;21572;-47
2023/03/08 06:56:52;;;;;;;2.77;1.37;;;;;;;20.52;27.65;101111.64;1813830;78;21209;-48
2023/03/08 06:59:21;;;;;;;10.93;1.52;;;;;;;20.73;27.12;101130.13;1810448;79;21047;-48
2023/03/08 07:01:49;;;;;;;2.37;1.20;;;;;;;20.73;27.37;101107.39;1810452;79;21038;-48
2023/03/08 07:04:18;;;;;;;7.60;1.37;;;;;;;20.87;27.24;101114.84;1810539;79;21513;-50
2023/03/08 07:06:47;;;;;;;1.80;1.20;;;;;;;21.01;26.38;101115.97;1842418;76;21118;-49
2023/03/08 07:09:15;;;;;;;1.70;1.00;;;;;;;21.23;26.71;101109.80;1847266;78;21033;-49
2023/03/08 07:11:44;;;;;;;3.02;1.00;;;;;;;21.66;26.23;101098.88;1827799;76;21085;-51
2023/03/08 07:14:12;;;;;;;4.58;1.10;;;;;;;21.51;25.60;101125.92;1831800;76;21040;-48
2023/03/08 07:16:41;;;;;;;4.60;1.17;;;;;;;21.60;25.06;101100.23;1847315;78;21036;-47
2023/03/08 07:19:10;;;;;;;2.12;0.98;;;;;;;21.75;25.41;101116.91;1847271;78;21044;-47
2023/03/08 07:21:38;;;;;;;1.20;0.90;;;;;;;21.88;24.99;101110.06;1836794;78;21018;-48
2023/03/08 07:24:07;;;;;;;3.30;1.20;;;;;;;22.11;24.99;101107.70;1810326;79;21125;-49
2023/03/08 07:26:36;;;;;;;2.72;0.90;;;;;;;22.08;24.62;101116.49;1810566;79;21054;-48
2023/03/08 07:29:05;;;;;;;1.70;0.90;;;;;;;21.93;24.62;101114.08;1810446;79;21062;-46
2023/03/08 07:31:35;;;;;;;3.35;0.98;;;;;;;22.21;24.96;101104.27;1810819;78;21541;-48
2023/03/08 07:34:04;;;;;;;3.85;1.10;;;;;;;22.81;24.89;101101.95;1864164;76;21533;-50
2023/03/08 07:36:33;;;;;;;1.00;0.90;;;;;;;23.18;23.90;101096.98;1810775;76;21128;-46
2023/03/08 07:39:01;;;;;;;1.67;1.02;;;;;;;23.12;23.51;101105.58;1810420;79;21086;-46
2023/03/08 07:41:31;;;;;;;2.05;1.12;;;;;;;23.13;23.02;101083.12;1845516;78;21058;-46
2023/03/08 07:44:01;;;;;;;2.65;0.95;;;;;;;23.00;23.15;101091.35;1847362;78;21126;-49
2023/03/08 07:46:30;;;;;;;3.12;0.90;;;;;;;23.12;23.17;101086.27;1847246;78;21056;-48
2023/03/08 07:48:58;;;;;;;1.57;0.78;;;;;;;23.18;22.95;101092.11;1847319;77;21487;-49
2023/03/08 07:51:27;;;;;;;3.25;0.75;;;;;;;23.41;22.63;101096.33;1846696;76;21052;-48
2023/03/08 07:53:56;;;;;;;2.72;1.07;;;;;;;23.44;22.92;101086.66;1847193;78;21056;-47
2023/03/08 07:56:24;;;;;;;2.50;0.80;;;;;;;23.74;22.12;101105.55;1847306;77;21092;-48
2023/03/08 07:58:54;;;;;;;0.75;0.75;;;;;;;23.60;22.05;101109.48;1847219;78;21549;-48
2023/03/08 08:01:23;;;;;;;1.52;0.70;;;;;;;23.83;21.90;101096.70;1844385;77;21032;-48
2023/03/08 08:03:52;;;;;;;1.87;0.98;;;;;;;24.18;22.35;101110.15;1847124;78;21628;-46
2023/03/08 08:06:20;;;;;;;4.42;1.22;;;;;;;24.35;21.81;101107.28;1847268;78;21478;-47
2023/03/08 08:08:49;;;;;;;2.80;1.10;;;;;;;24.70;21.36;101112.13;1851935;76;21009;-49
2023/03/08 08:11:21;;;;;;;2.15;1.05;;;;;;;24.72;20.92;101095.83;1848246;76;21056;-47
2023/03/08 08:13:50;;;;;;;1.47;0.80;;;;;;;24.54;21.11;101112.69;1847329;77;21012;-54
2023/03/08 08:16:24;;;;;;;0.82;0.80;;;;;;;24.44;21.12;101127.47;1847099;77;21244;-51
2023/03/08 08:18:50;;;;;;;4.60;1.05;;;;;;;24.53;21.22;101107.44;1848023;76;21501;-52
2023/03/08 08:21:19;;;;;;;2.33;1.00;;;;;;;24.40;21.10;101116.64;1844018;76;21036;-48
2023/03/08 08:23:48;;;;;;;1.85;1.00;;;;;;;24.59;20.59;101116.31;1845570;78;21479;-47
2023/03/08 08:26:20;;;;;;;0.95;0.70;;;;;;;24.40;20.57;101112.59;1845550;78;21130;-48
2023/03/08 08:28:51;;;;;;;1.22;0.62;;;;;;;24.22;20.96;101119.16;1844321;76;21091;-47
2023/03/08 08:31:23;;;;;;;2.85;1.00;;;;;;;24.37;20.46;101126.33;1829195;76;21062;-49
2023/03/08 08:33:52;;;;;;;1.32;0.72;;;;;;;24.30;20.58;101109.55;1810400;79;21133;-49
2023/03/08 08:36:21;;;;;;;2.05;0.82;;;;;;;24.24;20.77;101092.96;1810397;79;21086;-48
2023/03/08 08:38:50;;;;;;;5.00;0.93;;;;;;;24.24;20.41;101107.77;1810994;77;21510;-51
2023/03/08 08:41:21;;;;;;;1.50;0.82;;;;;;;24.28;20.71;101097.06;1827697;77;21075;-47
2023/03/08 08:43:51;;;;;;;1.27;0.88;;;;;;;24.51;20.67;101097.28;1825356;79;21137;-45
2023/03/08 08:46:20;;;;;;;1.92;0.90;;;;;;;24.82;20.56;101095.30;1825344;79;21544;-46
2023/03/08 08:48:48;;;;;;;1.10;0.75;;;;;;;24.96;20.41;101091.33;1825267;78;21118;-47
2023/03/08 08:51:17;;;;;;;1.65;1.00;;;;;;;25.33;20.33;101084.64;1827891;77;21048;-47
2023/03/08 08:53:46;;;;;;;0.88;0.70;;;;;;;25.26;20.03;101086.73;1825176;78;21087;-47
2023/03/08 08:56:18;;;;;;;1.60;1.20;;;;;;;25.46;20.08;101086.16;1825370;78;21597;-46
2023/03/08 08:58:47;;;;;;;0.90;0.70;;;;;;;25.71;20.02;101081.42;1825287;78;21040;-45
2023/03/08 09:01:19;;;;;;;1.42;0.90;;;;;;;26.04;19.82;101085.84;1827822;77;21533;-47
2023/03/08 09:03:48;;;;;;;2.33;0.90;;;;;;;25.89;19.56;101096.78;1861242;77;21122;-47
2023/03/08 09:06:19;;;;;;;0.95;0.75;;;;;;;25.60;19.38;101093.73;1862463;77;21479;-47
2023/03/08 09:08:53;;;;;;;1.02;0.80;;;;;;;25.61;19.53;101092.75;1862637;76;21156;-49
2023/03/08 09:11:23;;;;;;;0.85;0.60;;;;;;;25.58;19.59;101087.17;1780509;78;21059;-47
2023/03/08 09:13:52;;;;;;;2.75;1.05;;;;;;;25.76;19.68;101091.23;1821225;79;21132;-47
2023/03/08 09:16:32;;;;;;;1.72;0.93;;;;;;;25.85;19.54;101081.91;1815746;78;21482;-47
2023/03/08 09:19:04;;;;;;;2.60;1.00;;;;;;;25.57;19.36;101085.96;1847465;78;21059;-47
2023/03/08 09:21:33;;;;;;;2.52;0.80;;;;;;;25.07;19.37;101088.97;1804034;78;21062;-47
2023/03/08 09:24:05;;;;;;;2.67;1.22;;;;;;;25.04;19.68;101088.23;1784144;80;21509;-46
2023/03/08 09:26:35;;;;;;;2.92;1.17;;;;;;;25.10;19.61;101088.66;1784044;80;21058;-46
2023/03/08 09:29:04;;;;;;;1.30;0.80;;;;;;;25.17;20.00;101080.34;1808460;78;21149;-50
2023/03/08 09:31:35;;;;;;;4.25;0.70;;;;;;;25.25;19.74;101075.11;1801866;78;21117;-47
2023/03/08 09:34:07;;;;;;;3.30;0.90;;;;;;;25.17;20.06;101076.30;1821503;79;21132;-46
2023/03/08 09:36:38;;;;;;;2.42;1.05;;;;;;;25.24;20.17;101058.58;1821451;79;21144;-46
2023/03/08 09:39:11;;;;;;;0.95;0.75;;;;;;;25.67;19.92;101062.98;1816682;79;21090;-45
2023/03/08 09:41:58;;;;;;;2.75;0.90;;;;;;;25.38;19.45;101054.05;1804665;79;21095;-45
2023/03/08 09:44:46;;;;;;;1.50;0.80;;;;;;;24.98;19.64;101068.63;1808729;79;21487;-47
2023/03/08 09:47:17;;;;;;;4.65;0.90;;;;;;;24.55;19.90;101067.30;1807973;78;21521;-46
2023/03/08 09:49:48;;;;;;;2.55;0.80;;;;;;;24.50;20.18;101055.23;1810575;78;21082;-46
2023/03/08 09:52:42;;;;;;;4.25;0.98;;;;;;;24.56;20.00;101054.17;1808557;79;21114;-46
2023/03/08 09:55:28;;;;;;;5.35;0.98;;;;;;;24.25;20.03;101054.31;1808769;79;21498;-46
2023/03/08 09:57:57;;;;;;;3.93;1.03;;;;;;;24.09;20.45;101039.23;1809307;78;21153;-50
2023/03/08 10:00:36;;;;;;;1.75;1.22;;;;;;;23.93;20.03;101040.27;1810725;78;21082;-46
2023/03/08 10:03:10;;;;;;;3.45;0.70;;;;;;;23.76;20.17;101039.92;1808602;79;21071;-46
2023/03/08 10:05:45;;;;;;;4.40;0.90;;;;;;;23.72;20.40;101045.23;1863050;76;21059;-46
2023/03/08 10:08:28;;;;;;;2.05;0.70;;;;;;;23.44;20.58;101045.48;1873419;76;21059;-47
2023/03/08 10:11:04;;;;;;;1.60;0.80;;;;;;;23.46;20.79;101032.28;1854470;76;21259;-46
2023/03/08 10:13:35;;;;;;;2.35;1.07;;;;;;;23.55;21.06;101029.75;1838402;78;21049;-46
2023/03/08 10:16:16;;;;;;;2.17;1.00;;;;;;;23.70;21.00;101032.42;1838365;78;21472;-46
2023/03/08 10:18:56;;;;;;;1.40;0.70;;;;;;;23.65;20.75;101009.97;1838599;77;21054;-47
2023/03/08 10:21:28;;;;;;;1.50;0.95;;;;;;;23.36;20.86;101054.73;1836393;78;21062;-46
2023/03/08 10:24:02;;;;;;;2.10;0.80;;;;;;;23.17;21.30;101023.27;1838415;77;21093;-47
2023/03/08 10:26:31;;;;;;;1.25;0.65;;;;;;;23.43;21.44;101016.92;1838677;78;21129;-48
2023/03/08 10:29:00;;;;;;;1.50;0.80;;;;;;;23.44;21.20;100993.95;1838792;78;21033;-46
2023/03/08 10:31:32;;;;;;;2.15;0.70;;;;;;;23.24;21.25;101001.09;1836072;77;21190;-45
2023/03/08 10:34:18;;;;;;;2.37;0.70;;;;;;;23.05;21.26;101011.25;1839123;78;21147;-46
2023/03/08 10:36:53;;;;;;;1.10;0.72;;;;;;;23.08;21.38;101008.80;1838678;78;21178;-48
2023/03/08 10:39:23;;;;;;;2.10;0.93;;;;;;;23.06;21.65;100998.19;1838617;77;21102;-46
2023/03/08 10:41:57;;;;;;;2.02;0.90;;;;;;;23.20;21.46;100992.09;1797699;78;21110;-45
2023/03/08 10:44:53;;;;;;;1.98;0.80;;;;;;;23.08;20.90;100988.16;1758750;81;21079;-46
2023/03/08 10:47:31;;;;;;;2.55;0.62;;;;;;;22.93;21.34;100980.93;1661498;85;21533;-47
2023/03/08 10:50:17;;;;;;;3.33;0.90;;;;;;;23.01;21.39;100974.88;1733769;81;21074;-47
2023/03/08 10:52:48;;;;;;;1.85;0.70;;;;;;;22.86;21.41;100951.58;1797918;79;21141;-48
2023/03/08 10:55:20;;;;;;;5.10;0.88;;;;;;;22.92;21.41;100981.06;1806837;79;21168;-45
2023/03/08 10:58:04;;;;;;;1.87;0.60;;;;;;;23.01;21.19;100977.56;1790649;78;21167;-46
2023/03/08 11:00:38;;;;;;;1.90;0.57;;;;;;;22.88;21.42;100976.45;1815440;79;21130;-48
2023/03/08 11:03:12;;;;;;;3.77;0.85;;;;;;;22.68;21.50;100984.89;1824570;78;21061;-45
2023/03/08 11:05:42;;;;;;;1.67;0.90;;;;;;;22.53;21.65;100976.33;1851007;77;21098;-46
2023/03/08 11:08:19;;;;;;;0.95;0.62;;;;;;;22.31;22.09;100982.68;1886243;76;21568;-48
2023/03/08 11:10:50;;;;;;;1.25;0.70;;;;;;;22.29;22.41;100953.80;1888027;76;21024;-47
2023/03/08 11:13:27;;;;;;;1.70;0.70;;;;;;;22.29;22.38;100983.80;1885951;76;21055;-48
2023/03/08 11:16:19;;;;;;;3.33;1.30;;;;;;;22.21;22.87;100981.73;1859423;76;21020;-49
2023/03/08 11:18:53;;;;;;;1.77;1.10;;;;;;;22.15;23.22;100970.17;1847458;76;21158;-51
2023/03/08 11:21:27;;;;;;;2.00;0.70;;;;;;;21.97;23.31;100974.77;1847491;76;21071;-49
2023/03/08 11:24:16;;;;;;;2.58;0.80;;;;;;;21.75;23.55;100966.82;1847672;76;21080;-48
2023/03/08 11:27:02;;;;;;;2.30;0.85;;;;;;;21.64;23.65;100976.23;1847264;78;21153;-50
2023/03/08 11:29:51;;;;;;;6.12;1.00;;;;;;;21.46;24.08;100975.41;1847113;77;21122;-49
2023/03/08 11:32:42;;;;;;;3.20;1.05;;;;;;;21.42;24.21;100994.02;1847980;76;21625;-49
2023/03/08 11:35:14;;;;;;;2.25;0.98;;;;;;;21.37;24.40;100979.64;1845722;76;21084;-46
2023/03/08 11:38:09;;;;;;;1.45;0.75;;;;;;;21.21;24.51;100989.91;1842980;78;21056;-47
2023/03/08 11:40:50;;;;;;;1.40;0.70;;;;;;;20.81;24.69;100990.38;1843113;78;21487;-46
2023/03/08 11:43:22;;;;;;;2.50;1.10;;;;;;;20.49;25.44;100986.15;1843088;78;21115;-46
2023/03/08 11:46:02;;;;;;;1.55;0.62;;;;;;;20.24;25.93;100963.48;1843301;78;21089;-48
2023/03/08 11:48:55;;;;;;;2.22;0.78;;;;;;;20.05;26.12;100969.37;1842915;78;21134;-48